Time;durP1;ratioP1;P1;durP2;ratioP2;P2;SDS_P1;SDS_P2;PMS_P1;PMS_P2;Temp;Humidity;BMP_temperature;BMP_pressure;BME280_temperature;BME280_humidity;BME280_pressure;Samples;Min_cycle;Max_cycle;Signal;HPM_P1;HPM_P2
2023/06/05 00:01:27;;;;;;;6.10;4.68;;;22.50;83.30;;;;;;6356871;27;89375;-67
2023/06/05 00:04:28;;;;;;;5.40;4.50;;;22.50;83.50;;;;;;6353327;27;89160;-67
2023/06/05 00:07:30;;;;;;;5.60;4.80;;;22.60;83.50;;;;;;6355631;27;88370;-67
2023/06/05 00:10:33;;;;;;;4.85;4.35;;;22.50;83.40;;;;;;6347781;27;87886;-68
2023/06/05 00:13:35;;;;;;;4.63;4.22;;;22.60;83.50;;;;;;6352935;27;89028;-67
2023/06/05 00:16:38;;;;;;;6.47;4.88;;;22.60;83.50;;;;;;6353374;27;90180;-67
2023/06/05 00:19:40;;;;;;;5.82;4.60;;;22.60;83.50;;;;;;6346016;27;87934;-67
2023/06/05 00:22:44;;;;;;;5.47;4.88;;;22.50;83.40;;;;;;6333784;27;88977;-67
2023/06/05 00:25:46;;;;;;;6.68;4.80;;;22.50;83.40;;;;;;6337027;27;89183;-67
2023/06/05 00:28:48;;;;;;;5.35;4.43;;;22.50;83.50;;;;;;6350605;27;88051;-67
2023/06/05 00:31:53;;;;;;;5.57;4.45;;;22.50;83.50;;;;;;6358236;27;89371;-67
2023/06/05 00:34:55;;;;;;;5.95;4.85;;;22.50;83.50;;;;;;6355778;27;89010;-67
2023/06/05 00:37:57;;;;;;;5.82;4.80;;;22.50;83.50;;;;;;6356338;27;88355;-67
2023/06/05 00:40:59;;;;;;;5.65;4.47;;;22.50;83.50;;;;;;6345470;27;88965;-67
2023/06/05 00:44:01;;;;;;;5.18;4.47;;;22.50;83.70;;;;;;6343928;27;89278;-67
2023/06/05 00:47:05;;;;;;;5.43;4.82;;;22.50;83.70;;;;;;6334406;27;90313;-67
2023/06/05 00:50:08;;;;;;;5.35;4.50;;;22.50;83.70;;;;;;6347116;27;89283;-67
2023/06/05 00:53:10;;;;;;;5.80;4.20;;;22.50;83.80;;;;;;6345475;27;89215;-67
2023/06/05 00:56:13;;;;;;;5.93;4.65;;;22.50;83.70;;;;;;6340983;27;89008;-67
2023/06/05 00:59:16;;;;;;;5.47;4.38;;;22.50;83.80;;;;;;6345662;27;88124;-67
2023/06/05 01:02:20;;;;;;;6.20;4.60;;;22.50;83.80;;;;;;6354713;27;88008;-67
2023/06/05 01:05:22;;;;;;;4.70;4.30;;;22.50;83.90;;;;;;6353996;27;87765;-68
2023/06/05 01:08:25;;;;;;;5.90;4.43;;;22.50;83.80;;;;;;6341872;27;88254;-67
2023/06/05 01:11:37;;;;;;;5.07;4.13;;;22.50;83.80;;;;;;6342715;27;89088;-67
2023/06/05 01:14:45;;;;;;;4.95;4.45;;;22.50;84.00;;;;;;6353510;27;89318;-67
2023/06/05 01:17:49;;;;;;;4.53;4.05;;;22.50;83.90;;;;;;6344922;27;91038;-67
2023/06/05 01:20:56;;;;;;;9.65;5.55;;;22.50;83.80;;;;;;6338732;27;89463;-68
2023/06/05 01:24:01;;;;;;;7.85;5.25;;;22.50;84.00;;;;;;6354717;27;89124;-67
2023/06/05 01:27:09;;;;;;;5.88;4.78;;;22.50;84.00;;;;;;6337550;27;89111;-67
2023/06/05 01:30:16;;;;;;;4.90;4.40;;;22.40;84.00;;;;;;6334563;27;88930;-67
2023/06/05 01:33:25;;;;;;;5.63;4.47;;;22.50;84.20;;;;;;6343611;27;89077;-67
2023/06/05 01:36:27;;;;;;;5.20;4.70;;;22.50;84.30;;;;;;6344527;27;88988;-67
2023/06/05 01:39:31;;;;;;;4.40;4.00;;;22.40;84.20;;;;;;6347751;27;88718;-67
2023/06/05 01:42:34;;;;;;;4.60;4.05;;;22.50;84.40;;;;;;6334606;27;88780;-67
2023/06/05 01:45:40;;;;;;;4.80;4.30;;;22.50;84.20;;;;;;6342535;27;89058;-67
2023/06/05 01:48:42;;;;;;;4.82;4.28;;;22.50;84.20;;;;;;6342571;27;90004;-67
2023/06/05 01:51:44;;;;;;;6.68;4.78;;;22.50;84.20;;;;;;6346814;27;90923;-67
2023/06/05 01:54:49;;;;;;;4.60;4.03;;;22.50;84.40;;;;;;6353364;27;89183;-67
2023/06/05 01:57:51;;;;;;;4.60;4.10;;;22.50;84.50;;;;;;6344417;27;88995;-68
2023/06/05 02:00:54;;;;;;;4.82;4.30;;;22.50;84.60;;;;;;6346344;27;88893;-67
2023/06/05 02:03:57;;;;;;;4.95;4.45;;;22.50;84.70;;;;;;6332709;27;89111;-67
2023/06/05 02:07:03;;;;;;;8.00;4.95;;;22.50;84.80;;;;;;6348210;27;89301;-68
2023/06/05 02:10:08;;;;;;;4.68;4.15;;;22.50;84.80;;;;;;6348322;27;88411;-68
2023/06/05 02:13:10;;;;;;;6.25;4.35;;;22.50;84.90;;;;;;6343170;27;88907;-68
2023/06/05 02:16:13;;;;;;;4.45;3.92;;;22.50;84.90;;;;;;6352096;27;89059;-68
2023/06/05 02:19:15;;;;;;;4.68;4.22;;;22.50;84.70;;;;;;6352664;27;90030;-68
2023/06/05 02:22:17;;;;;;;4.97;3.97;;;22.50;84.70;;;;;;6340009;27;89223;-68
2023/06/05 02:25:20;;;;;;;5.10;4.18;;;22.40;84.70;;;;;;6351380;27;89082;-68
2023/06/05 02:28:22;;;;;;;5.43;4.10;;;22.50;84.90;;;;;;6349697;27;89123;-67
2023/06/05 02:31:25;;;;;;;4.75;4.18;;;22.40;84.90;;;;;;6351358;27;88987;-68
2023/06/05 02:34:28;;;;;;;4.32;3.92;;;22.40;85.00;;;;;;6351446;27;87822;-68
2023/06/05 02:37:36;;;;;;;5.10;4.60;;;22.40;85.00;;;;;;6354615;27;89398;-68
2023/06/05 02:40:40;;;;;;;5.13;4.47;;;22.40;85.10;;;;;;6344702;27;88401;-68
2023/06/05 02:43:42;;;;;;;4.85;4.30;;;22.40;85.10;;;;;;6352558;27;88999;-68
2023/06/05 02:46:44;;;;;;;5.03;4.40;;;22.40;85.30;;;;;;6348217;27;89407;-68
2023/06/05 02:49:46;;;;;;;5.40;4.30;;;22.40;85.60;;;;;;6342334;27;89940;-68
2023/06/05 02:52:48;;;;;;;5.00;4.20;;;22.40;85.70;;;;;;6355657;27;89839;-68
2023/06/05 02:55:52;;;;;;;4.63;4.15;;;22.40;85.70;;;;;;6357422;27;89123;-67
2023/06/05 02:58:56;;;;;;;5.53;4.25;;;22.40;85.90;;;;;;6335408;27;89032;-68
2023/06/05 03:01:58;;;;;;;4.30;3.85;;;22.40;86.00;;;;;;6358749;27;89047;-67
2023/06/05 03:05:00;;;;;;;4.40;4.00;;;22.40;86.20;;;;;;6351313;27;87914;-68
2023/06/05 03:08:03;;;;;;;4.70;4.10;;;22.40;86.50;;;;;;6350451;27;89135;-68
2023/06/05 03:11:06;;;;;;;4.30;3.90;;;22.30;86.70;;;;;;6338608;27;88395;-68
2023/06/05 03:14:08;;;;;;;4.93;4.10;;;22.30;87.00;;;;;;6335575;27;89047;-68
2023/06/05 03:17:11;;;;;;;4.10;3.67;;;22.30;87.10;;;;;;6357955;27;87988;-68
2023/06/05 03:20:13;;;;;;;4.47;3.80;;;22.20;86.90;;;;;;6357860;27;89889;-68
2023/06/05 03:23:15;;;;;;;5.55;4.00;;;22.30;87.10;;;;;;6358308;27;89223;-68
2023/06/05 03:26:18;;;;;;;4.60;3.70;;;22.20;87.70;;;;;;6348659;27;89219;-68
2023/06/05 03:29:20;;;;;;;4.00;3.60;;;22.30;87.30;;;;;;6358975;27;89138;-67
2023/06/05 03:32:22;;;;;;;4.40;3.70;;;22.20;87.40;;;;;;6356702;27;89135;-67
2023/06/05 03:35:24;;;;;;;4.72;3.90;;;22.20;87.60;;;;;;6358974;27;89207;-67
2023/06/05 03:38:26;;;;;;;4.93;3.85;;;22.20;87.70;;;;;;6359402;27;89039;-67
2023/06/05 03:41:29;;;;;;;4.38;3.80;;;22.20;87.70;;;;;;6350542;27;88327;-67
2023/06/05 03:44:31;;;;;;;4.10;3.25;;;22.20;87.90;;;;;;6346138;27;89133;-67
2023/06/05 03:47:34;;;;;;;3.75;3.45;;;22.20;87.70;;;;;;6337211;27;91522;-67
2023/06/05 03:50:38;;;;;;;4.38;3.70;;;22.20;88.10;;;;;;6356349;27;90139;-67
2023/06/05 03:53:43;;;;;;;4.65;3.45;;;22.20;88.30;;;;;;6357164;27;89696;-67
2023/06/05 03:56:49;;;;;;;4.40;3.70;;;22.20;87.90;;;;;;6364545;27;89228;-67
2023/06/05 03:59:51;;;;;;;4.25;3.63;;;22.20;88.30;;;;;;6355030;27;88074;-67
2023/06/05 04:02:53;;;;;;;4.05;3.50;;;22.20;88.20;;;;;;6360877;27;89481;-67
2023/06/05 04:05:56;;;;;;;4.72;3.67;;;22.20;88.00;;;;;;6366058;27;89101;-67
2023/06/05 04:08:58;;;;;;;4.32;3.83;;;22.20;88.20;;;;;;6345333;27;89112;-67
2023/06/05 04:12:01;;;;;;;5.22;4.03;;;22.20;88.30;;;;;;6351278;27;88335;-68
2023/06/05 04:15:04;;;;;;;4.80;3.72;;;22.20;88.30;;;;;;6359981;27;89334;-68
2023/06/05 04:18:06;;;;;;;3.60;3.30;;;22.20;88.30;;;;;;6359197;27;89411;-68
2023/06/05 04:21:08;;;;;;;3.78;3.47;;;22.20;88.10;;;;;;6346140;27;90052;-68
2023/06/05 04:24:10;;;;;;;4.10;3.70;;;22.10;88.00;;;;;;6356389;27;89252;-68
2023/06/05 04:27:14;;;;;;;4.43;3.70;;;22.20;88.10;;;;;;6343819;27;89140;-68
2023/06/05 04:30:16;;;;;;;4.00;3.60;;;22.20;88.10;;;;;;6354165;27;89027;-68
2023/06/05 04:33:18;;;;;;;4.40;3.95;;;22.20;88.00;;;;;;6357826;27;89069;-68
2023/06/05 04:36:20;;;;;;;4.40;4.00;;;22.20;88.10;;;;;;6347999;27;88304;-68
2023/06/05 04:39:23;;;;;;;3.78;3.20;;;22.40;88.20;;;;;;6332457;27;89009;-68
2023/06/05 04:42:27;;;;;;;4.03;3.60;;;22.20;88.10;;;;;;6340893;27;88283;-68
2023/06/05 04:45:29;;;;;;;4.28;3.83;;;22.20;88.30;;;;;;6351116;27;89066;-68
2023/06/05 04:48:31;;;;;;;5.30;3.90;;;22.20;88.40;;;;;;6349378;27;89049;-68
2023/06/05 04:51:33;;;;;;;4.10;3.70;;;22.10;88.80;;;;;;6347451;27;90365;-68
2023/06/05 04:54:35;;;;;;;5.50;3.80;;;22.10;89.10;;;;;;6351018;27;89060;-68
2023/06/05 04:57:38;;;;;;;5.93;3.90;;;22.10;89.10;;;;;;6348135;27;89023;-68
2023/06/05 05:00:40;;;;;;;6.05;3.65;;;22.10;89.20;;;;;;6356818;27;89084;-67
2023/06/05 05:03:44;;;;;;;5.90;4.05;;;22.10;88.90;;;;;;6356460;27;89053;-68
2023/06/05 05:06:47;;;;;;;7.07;4.30;;;22.10;89.00;;;;;;6335707;27;89463;-67
2023/06/05 05:09:50;;;;;;;6.57;3.95;;;22.10;89.10;;;;;;6358732;27;89158;-68
2023/06/05 05:12:53;;;;;;;4.78;3.80;;;22.10;89.00;;;;;;6344950;27;88315;-68
2023/06/05 05:15:55;;;;;;;4.35;3.85;;;22.20;89.00;;;;;;6345302;27;89068;-67
2023/06/05 05:18:57;;;;;;;4.07;3.67;;;22.10;88.80;;;;;;6352835;27;89458;-68
2023/06/05 05:21:59;;;;;;;6.30;3.60;;;22.20;88.80;;;;;;6351485;27;90046;-68
2023/06/05 05:25:01;;;;;;;4.32;3.75;;;22.20;88.70;;;;;;6350184;27;89009;-67
2023/06/05 05:28:05;;;;;;;5.03;3.97;;;22.20;88.60;;;;;;6356851;27;88013;-68
2023/06/05 05:31:07;;;;;;;6.70;4.32;;;22.20;88.60;;;;;;6354979;27;89149;-68
2023/06/05 05:34:09;;;;;;;4.43;3.90;;;22.20;88.50;;;;;;6354974;27;89283;-68
2023/06/05 05:37:11;;;;;;;5.22;3.92;;;22.20;88.40;;;;;;6352963;27;89096;-68
2023/06/05 05:40:13;;;;;;;3.85;3.47;;;22.20;88.40;;;;;;6356334;27;89372;-68
2023/06/05 05:43:17;;;;;;;4.40;4.00;;;22.20;88.40;;;;;;6360683;27;88407;-68
2023/06/05 05:46:19;;;;;;;4.80;4.28;;;22.20;88.40;;;;;;6345087;27;88963;-67
2023/06/05 05:49:21;;;;;;;4.95;4.22;;;22.20;88.30;;;;;;6351185;27;89096;-68
2023/06/05 05:52:23;;;;;;;5.05;4.38;;;22.20;88.40;;;;;;6351766;27;91524;-68
2023/06/05 05:55:25;;;;;;;4.70;4.15;;;22.20;88.30;;;;;;6351425;27;87964;-68
2023/06/05 05:58:29;;;;;;;4.00;3.63;;;22.20;88.30;;;;;;6347810;27;89062;-68
2023/06/05 06:01:32;;;;;;;4.13;3.75;;;22.20;88.30;;;;;;6360823;27;89090;-67
2023/06/05 06:04:34;;;;;;;4.88;3.95;;;22.20;88.30;;;;;;6360489;27;88707;-68
2023/06/05 06:07:36;;;;;;;4.90;4.10;;;22.20;88.10;;;;;;6361676;27;89406;-67
2023/06/05 06:10:39;;;;;;;4.38;3.78;;;22.20;88.20;;;;;;6346950;27;88277;-68
2023/06/05 06:13:43;;;;;;;4.40;4.00;;;22.20;88.20;;;;;;6361183;27;88413;-67
2023/06/05 06:16:45;;;;;;;5.07;4.32;;;22.30;88.30;;;;;;6360118;27;89233;-67
2023/06/05 06:19:48;;;;;;;5.68;4.30;;;22.30;88.30;;;;;;6360623;27;87955;-68
2023/06/05 06:22:50;;;;;;;5.00;4.13;;;22.20;88.30;;;;;;6338029;27;90085;-68
2023/06/05 06:25:52;;;;;;;4.15;3.80;;;22.30;88.40;;;;;;6361056;27;89086;-67
2023/06/05 06:28:57;;;;;;;4.40;4.00;;;22.20;88.30;;;;;;6354650;27;88963;-67
2023/06/05 06:31:59;;;;;;;5.78;4.32;;;22.30;88.40;;;;;;6343285;27;88083;-68
2023/06/05 06:35:01;;;;;;;5.85;4.63;;;22.20;88.30;;;;;;6345968;27;88979;-68
2023/06/05 06:38:04;;;;;;;4.82;4.20;;;22.30;88.50;;;;;;6350348;27;90750;-67
2023/06/05 06:41:06;;;;;;;4.47;3.90;;;22.20;88.40;;;;;;6357967;27;88867;-68
2023/06/05 06:44:09;;;;;;;4.78;4.30;;;22.20;88.30;;;;;;6353842;27;88319;-68
2023/06/05 06:47:11;;;;;;;6.28;4.50;;;22.20;88.40;;;;;;6354121;27;88014;-68
2023/06/05 06:50:15;;;;;;;6.40;4.53;;;22.30;88.60;;;;;;6360551;27;89359;-68
2023/06/05 06:53:17;;;;;;;4.30;3.90;;;22.20;88.60;;;;;;6357594;27;90354;-67
2023/06/05 06:56:19;;;;;;;4.63;4.10;;;22.20;88.40;;;;;;6346878;27;88289;-68
2023/06/05 06:59:22;;;;;;;4.40;4.00;;;22.20;88.50;;;;;;6355326;27;89059;-67
2023/06/05 07:02:26;;;;;;;4.68;4.22;;;22.30;88.50;;;;;;6353081;27;89009;-67
2023/06/05 07:05:28;;;;;;;4.60;4.13;;;22.30;88.60;;;;;;6352393;27;87890;-68
2023/06/05 07:08:30;;;;;;;4.35;3.95;;;22.20;88.40;;;;;;6354554;27;90285;-68
2023/06/05 07:11:32;;;;;;;5.40;4.22;;;22.30;88.60;;;;;;6358599;27;89109;-68
2023/06/05 07:14:35;;;;;;;6.20;4.80;;;22.20;88.60;;;;;;6360007;27;88562;-67
2023/06/05 07:17:37;;;;;;;4.72;4.30;;;22.20;88.60;;;;;;6357117;27;89104;-67
2023/06/05 07:20:39;;;;;;;4.38;3.95;;;22.30;88.60;;;;;;6355360;27;89044;-68
2023/06/05 07:23:41;;;;;;;4.75;4.25;;;22.30;88.60;;;;;;6351083;27;89825;-68
2023/06/05 07:26:43;;;;;;;4.85;4.30;;;22.30;88.60;;;;;;6345036;27;89000;-67
2023/06/05 07:29:47;;;;;;;4.65;4.20;;;22.30;88.60;;;;;;6353076;27;87981;-67
2023/06/05 07:32:50;;;;;;;4.80;4.40;;;22.30;88.60;;;;;;6342828;27;89236;-67
2023/06/05 07:35:52;;;;;;;4.95;4.25;;;22.30;88.60;;;;;;6359670;27;89564;-68
2023/06/05 07:38:54;;;;;;;5.10;4.60;;;22.30;88.60;;;;;;6358110;27;89284;-68
2023/06/05 07:41:56;;;;;;;5.65;4.78;;;22.20;88.60;;;;;;6354632;27;89612;-67
2023/06/05 07:45:00;;;;;;;5.47;4.90;;;22.30;88.80;;;;;;6353996;27;88290;-67
2023/06/05 07:48:01;;;;;;;4.57;4.10;;;22.30;88.80;;;;;;6352913;27;89072;-67
2023/06/05 07:51:04;;;;;;;6.47;4.70;;;22.30;88.80;;;;;;6354044;27;88980;-68
2023/06/05 07:54:07;;;;;;;5.28;4.50;;;22.30;88.60;;;;;;6341655;27;89249;-67
2023/06/05 07:57:09;;;;;;;4.97;4.47;;;22.30;88.60;;;;;;6348156;27;89051;-67
2023/06/05 08:00:15;;;;;;;4.78;4.25;;;22.30;88.60;;;;;;6355778;27;87975;-68
2023/06/05 08:03:19;;;;;;;5.60;4.85;;;22.30;88.60;;;;;;6355643;27;89017;-68
2023/06/05 08:06:24;;;;;;;5.00;4.55;;;22.30;88.80;;;;;;6356725;27;88012;-68
2023/06/05 08:09:26;;;;;;;5.10;4.60;;;22.30;88.80;;;;;;6352467;27;89247;-67
2023/06/05 08:12:27;;;;;;;6.00;4.78;;;22.30;88.80;;;;;;6351343;27;88917;-68
2023/06/05 08:15:31;;;;;;;5.45;4.90;;;22.30;88.80;;;;;;6358370;27;88337;-68
2023/06/05 08:18:33;;;;;;;5.95;4.88;;;22.30;88.90;;;;;;6347735;27;89172;-68
2023/06/05 08:21:36;;;;;;;5.30;4.70;;;22.20;88.80;;;;;;6357561;27;89821;-68
2023/06/05 08:24:38;;;;;;;5.38;4.65;;;22.30;89.00;;;;;;6357898;27;88867;-67
2023/06/05 08:27:40;;;;;;;5.00;4.50;;;22.20;88.80;;;;;;6357953;27;88989;-68
2023/06/05 08:30:44;;;;;;;5.00;4.60;;;22.30;88.80;;;;;;6356676;27;89037;-67
2023/06/05 08:33:46;;;;;;;5.38;4.88;;;22.30;88.80;;;;;;6358596;27;88968;-68
2023/06/05 08:36:48;;;;;;;5.90;4.82;;;22.30;88.80;;;;;;6357874;27;89096;-67
2023/06/05 08:39:50;;;;;;;6.28;5.28;;;22.30;88.90;;;;;;6356654;27;89121;-68
2023/06/05 08:42:52;;;;;;;5.97;5.13;;;22.30;88.90;;;;;;6355969;27;89046;-67
2023/06/05 08:45:57;;;;;;;5.40;4.90;;;22.30;88.90;;;;;;6357257;27;87235;-68
2023/06/05 08:49:02;;;;;;;5.00;4.60;;;22.30;88.90;;;;;;6356066;27;89258;-68
2023/06/05 08:52:08;;;;;;;5.43;4.93;;;22.30;89.00;;;;;;6348316;27;87917;-67
2023/06/05 08:55:11;;;;;;;5.72;4.95;;;22.30;89.10;;;;;;6334087;27;90074;-67
2023/06/05 08:58:14;;;;;;;5.40;4.90;;;22.30;89.10;;;;;;6336439;27;88966;-68
2023/06/05 09:01:17;;;;;;;5.22;4.70;;;22.30;89.10;;;;;;6338432;27;89004;-68
2023/06/05 09:04:20;;;;;;;5.13;4.72;;;22.30;89.00;;;;;;6349969;27;89007;-69
2023/06/05 09:07:22;;;;;;;7.68;5.43;;;22.30;89.20;;;;;;6354199;27;89162;-68
2023/06/05 09:10:25;;;;;;;5.88;4.97;;;22.30;89.20;;;;;;6339595;27;89084;-68
2023/06/05 09:13:45;;;;;;;6.20;5.60;;;22.30;89.30;;;;;;6345358;27;88879;-68
2023/06/05 09:16:49;;;;;;;5.47;4.97;;;22.30;89.40;;;;;;6346581;27;88183;-68
2023/06/05 09:19:51;;;;;;;5.75;5.18;;;22.30;89.30;;;;;;6344765;27;89049;-69
2023/06/05 09:22:53;;;;;;;5.20;4.78;;;22.30;89.50;;;;;;6354831;27;89045;-68
2023/06/05 09:25:58;;;;;;;5.28;4.78;;;22.30;89.60;;;;;;6345697;27;90058;-68
2023/06/05 09:29:02;;;;;;;5.40;4.90;;;22.30;89.60;;;;;;6352193;27;89179;-68
2023/06/05 09:32:07;;;;;;;6.38;5.05;;;22.30;89.60;;;;;;6352247;27;89058;-69
2023/06/05 09:35:16;;;;;;;5.15;4.75;;;22.30;89.50;;;;;;6362597;27;89066;-68
2023/06/05 09:38:27;;;;;;;5.90;5.30;;;22.30;89.40;;;;;;6340980;27;88950;-68
2023/06/05 09:41:29;;;;;;;6.45;5.40;;;22.30;89.30;;;;;;6345911;27;89015;-68
2023/06/05 09:44:34;;;;;;;5.82;5.22;;;22.30;89.10;;;;;;6356745;27;89001;-68
2023/06/05 09:47:38;;;;;;;5.38;4.97;;;22.40;89.30;;;;;;6352371;27;88368;-68
2023/06/05 09:50:40;;;;;;;5.75;5.25;;;22.30;89.40;;;;;;6351789;27;89007;-69
2023/06/05 09:53:46;;;;;;;5.85;5.32;;;22.40;89.60;;;;;;6353162;27;88394;-68
2023/06/05 09:56:49;;;;;;;6.43;4.95;;;22.40;89.60;;;;;;6339811;27;90043;-68
2023/06/05 09:59:54;;;;;;;5.45;5.03;;;22.40;89.60;;;;;;6351267;27;87175;-68
2023/06/05 10:02:58;;;;;;;5.25;4.75;;;22.30;89.60;;;;;;6342223;27;89039;-68
2023/06/05 10:06:00;;;;;;;5.97;5.47;;;22.30;89.70;;;;;;6339835;27;89981;-68
2023/06/05 10:09:03;;;;;;;5.72;5.20;;;22.40;89.70;;;;;;6352262;27;89070;-68
2023/06/05 10:12:07;;;;;;;5.95;5.40;;;22.30;89.60;;;;;;6349215;27;89040;-69
2023/06/05 10:15:11;;;;;;;6.80;5.63;;;22.30;89.70;;;;;;6344182;27;89088;-68
2023/06/05 10:18:15;;;;;;;6.03;5.45;;;22.40;90.00;;;;;;6349034;27;87222;-68
2023/06/05 10:21:18;;;;;;;6.00;5.40;;;22.30;89.90;;;;;;6353269;27;89438;-68
2023/06/05 10:24:24;;;;;;;5.72;5.20;;;22.30;89.90;;;;;;6348461;27;89064;-68
2023/06/05 10:27:49;;;;;;;5.53;5.03;;;22.40;90.00;;;;;;6358087;27;90262;-68
2023/06/05 10:31:19;;;;;;;5.50;5.00;;;22.40;89.60;;;;;;6350695;27;89043;-68
2023/06/05 10:34:36;;;;;;;5.80;5.20;;;22.30;89.40;;;;;;6344685;27;87962;-68
2023/06/05 10:37:48;;;;;;;5.85;5.35;;;22.30;89.40;;;;;;6336668;27;89085;-68
2023/06/05 10:40:54;;;;;;;5.57;5.07;;;22.40;89.60;;;;;;6343374;27;89219;-68
2023/06/05 10:43:56;;;;;;;5.55;5.05;;;22.40;89.70;;;;;;6357737;27;88947;-68
2023/06/05 10:46:58;;;;;;;6.05;5.55;;;22.40;90.00;;;;;;6360341;27;89018;-68
2023/06/05 10:50:27;;;;;;;5.80;5.30;;;22.40;90.00;;;;;;6350991;27;88236;-68
2023/06/05 10:53:47;;;;;;;6.32;5.40;;;22.40;90.00;;;;;;6359951;27;87943;-68
2023/06/05 10:56:58;;;;;;;5.63;5.18;;;22.40;90.10;;;;;;6359005;27;87776;-68
2023/06/05 11:00:10;;;;;;;5.95;5.35;;;22.40;90.20;;;;;;6357032;27;90002;-68
2023/06/05 11:03:12;;;;;;;5.93;5.32;;;22.40;90.10;;;;;;6357952;27;89289;-68
2023/06/05 11:06:16;;;;;;;5.60;5.10;;;22.40;90.20;;;;;;6350754;27;89063;-68
2023/06/05 11:09:18;;;;;;;6.10;5.55;;;22.40;90.30;;;;;;6354974;27;88958;-69
2023/06/05 11:12:20;;;;;;;5.50;5.00;;;22.40;90.30;;;;;;6357718;27;89030;-69
2023/06/05 11:15:39;;;;;;;5.97;5.47;;;22.40;90.30;;;;;;6358327;27;89036;-68
2023/06/05 11:18:41;;;;;;;6.35;5.25;;;22.40;90.20;;;;;;6356500;27;89231;-68
2023/06/05 11:22:07;;;;;;;5.50;5.10;;;22.40;90.10;;;;;;6355376;27;88337;-69
2023/06/05 11:25:30;;;;;;;5.22;4.72;;;22.30;90.00;;;;;;6352870;27;89250;-69
2023/06/05 11:28:40;;;;;;;5.30;4.80;;;22.40;89.90;;;;;;6352988;27;89335;-68
2023/06/05 11:31:44;;;;;;;5.82;5.22;;;22.30;90.00;;;;;;6354354;27;90010;-68
2023/06/05 11:34:48;;;;;;;5.72;5.20;;;22.40;90.00;;;;;;6352133;27;89103;-69
2023/06/05 11:38:08;;;;;;;5.10;4.70;;;22.40;90.00;;;;;;6358298;27;89501;-67
2023/06/05 11:41:10;;;;;;;5.38;4.97;;;22.30;90.00;;;;;;6337487;27;88220;-68
2023/06/05 11:44:12;;;;;;;5.25;4.85;;;22.40;90.00;;;;;;6356295;27;89047;-68
2023/06/05 11:47:23;;;;;;;5.03;4.60;;;22.40;90.10;;;;;;6357860;27;87945;-68
2023/06/05 11:50:30;;;;;;;5.90;5.38;;;22.40;90.10;;;;;;6350480;27;89136;-68
2023/06/05 11:53:34;;;;;;;5.47;4.97;;;22.40;90.20;;;;;;6356306;27;88375;-69
2023/06/05 11:56:45;;;;;;;5.40;4.90;;;22.40;90.20;;;;;;6358193;27;88187;-68
2023/06/05 11:59:47;;;;;;;5.70;5.20;;;22.30;90.20;;;;;;6348539;27;89177;-68
2023/06/05 12:02:49;;;;;;;5.22;4.72;;;22.40;90.40;;;;;;6345205;27;90277;-68
2023/06/05 12:05:52;;;;;;;5.32;4.93;;;22.40;90.30;;;;;;6348867;27;88973;-68
2023/06/05 12:09:09;;;;;;;6.32;5.50;;;22.40;90.30;;;;;;6352339;27;89297;-68
2023/06/05 12:12:11;;;;;;;5.88;5.38;;;22.40;90.40;;;;;;6350227;27;89227;-69
2023/06/05 12:15:16;;;;;;;6.45;5.60;;;22.40;90.40;;;;;;6357748;27;89316;-68
2023/06/05 12:18:18;;;;;;;5.85;5.35;;;22.40;90.50;;;;;;6347315;27;89024;-68
2023/06/05 12:21:22;;;;;;;5.57;5.10;;;22.40;90.40;;;;;;6355967;27;89135;-69
2023/06/05 12:24:28;;;;;;;5.70;5.20;;;22.40;90.40;;;;;;6349630;27;88214;-68
2023/06/05 12:27:33;;;;;;;5.93;5.43;;;22.40;90.40;;;;;;6351836;27;91194;-68
2023/06/05 12:30:41;;;;;;;5.97;5.47;;;22.40;90.60;;;;;;6358001;27;88927;-68
2023/06/05 12:33:49;;;;;;;5.43;4.93;;;22.30;90.90;;;;;;6354770;27;89934;-69
2023/06/05 12:36:51;;;;;;;5.50;5.07;;;22.40;91.00;;;;;;6356597;27;89148;-69
2023/06/05 12:39:55;;;;;;;6.30;5.70;;;22.40;91.10;;;;;;6352123;27;89124;-68
2023/06/05 12:42:57;;;;;;;5.75;5.25;;;22.40;91.20;;;;;;6347363;27;89062;-69
2023/06/05 12:45:59;;;;;;;5.78;5.28;;;22.40;91.40;;;;;;6347027;27;89040;-70
2023/06/05 12:49:01;;;;;;;5.72;5.22;;;22.40;91.70;;;;;;6357978;27;89026;-69
2023/06/05 12:52:03;;;;;;;5.80;5.35;;;22.40;92.40;;;;;;6343988;27;89361;-70
2023/06/05 12:55:08;;;;;;;5.63;5.07;;;22.40;92.20;;;;;;6349637;27;88142;-70
2023/06/05 12:58:10;;;;;;;6.00;5.50;;;22.40;92.60;;;;;;6354910;27;89852;-70
2023/06/05 13:01:12;;;;;;;6.05;5.50;;;22.40;92.70;;;;;;6357738;27;89050;-69
2023/06/05 13:04:14;;;;;;;5.47;5.00;;;22.30;92.90;;;;;;6352000;27;90120;-70
2023/06/05 13:07:17;;;;;;;5.95;5.35;;;22.40;93.00;;;;;;6354608;27;88146;-69
2023/06/05 13:10:21;;;;;;;6.95;5.65;;;22.30;93.00;;;;;;6353959;27;89299;-70
2023/06/05 13:13:23;;;;;;;7.43;5.63;;;22.40;93.20;;;;;;6356165;27;89525;-70
2023/06/05 13:16:25;;;;;;;5.43;4.93;;;22.30;92.70;;;;;;6347728;27;89148;-70
2023/06/05 13:19:27;;;;;;;6.15;5.20;;;22.40;92.40;;;;;;6358500;27;89134;-70
2023/06/05 13:22:29;;;;;;;5.35;4.85;;;22.40;92.50;;;;;;6355966;27;89165;-70
2023/06/05 13:25:32;;;;;;;6.03;4.70;;;22.40;93.00;;;;;;6341928;27;88285;-70
2023/06/05 13:28:34;;;;;;;6.38;5.10;;;22.40;92.90;;;;;;6356798;27;89098;-69
2023/06/05 13:31:36;;;;;;;6.88;5.80;;;22.40;93.10;;;;;;6354345;27;89052;-69
2023/06/05 13:34:38;;;;;;;5.30;4.80;;;22.40;93.20;;;;;;6357180;27;90049;-70
2023/06/05 13:37:41;;;;;;;5.00;4.50;;;22.40;93.10;;;;;;6340802;27;88809;-70
2023/06/05 13:40:48;;;;;;;5.40;4.90;;;22.30;93.00;;;;;;6356204;27;88382;-70
2023/06/05 13:43:50;;;;;;;5.70;4.72;;;22.40;93.00;;;;;;6357029;27;89059;-69
2023/06/05 13:46:52;;;;;;;4.63;4.22;;;22.40;92.90;;;;;;6356387;27;89252;-70
2023/06/05 13:49:54;;;;;;;4.97;4.38;;;22.40;93.00;;;;;;6356027;27;89213;-70
2023/06/05 13:52:56;;;;;;;5.65;4.13;;;22.40;93.00;;;;;;6344200;27;89271;-69
2023/06/05 13:55:59;;;;;;;4.93;4.35;;;22.40;93.00;;;;;;6337143;27;88787;-70
2023/06/05 13:59:01;;;;;;;7.00;4.82;;;22.40;93.10;;;;;;6345254;27;89130;-70
2023/06/05 14:02:03;;;;;;;4.47;4.03;;;22.40;93.00;;;;;;6360472;27;87956;-70
2023/06/05 14:05:07;;;;;;;5.15;4.20;;;22.40;93.00;;;;;;6360812;27;89765;-70
2023/06/05 14:08:09;;;;;;;5.07;4.13;;;22.40;93.00;;;;;;6370668;27;89138;-70
2023/06/05 14:11:13;;;;;;;4.80;3.97;;;22.40;92.70;;;;;;6362292;27;89010;-70
2023/06/05 14:14:15;;;;;;;4.30;3.90;;;22.40;92.60;;;;;;6348572;27;87967;-70
2023/06/05 14:17:17;;;;;;;5.15;3.83;;;22.40;92.80;;;;;;6342982;27;89116;-70
2023/06/05 14:20:20;;;;;;;4.30;3.90;;;22.40;92.80;;;;;;6350105;27;89060;-70
2023/06/05 14:23:23;;;;;;;5.50;4.35;;;22.40;93.00;;;;;;6347024;27;88884;-70
2023/06/05 14:26:26;;;;;;;7.63;4.38;;;22.40;93.00;;;;;;6340868;27;88426;-70
2023/06/05 14:29:28;;;;;;;4.80;3.83;;;22.40;93.20;;;;;;6361028;27;89137;-70
2023/06/05 14:32:30;;;;;;;5.13;4.10;;;22.50;93.20;;;;;;6349084;27;89051;-70
2023/06/05 14:35:33;;;;;;;4.70;4.10;;;22.50;93.00;;;;;;6341408;27;89981;-70
2023/06/05 14:38:35;;;;;;;4.53;4.10;;;22.40;93.00;;;;;;6359888;27;89092;-70
2023/06/05 14:41:38;;;;;;;5.30;4.30;;;22.40;93.30;;;;;;6360011;27;87999;-70
2023/06/05 14:44:40;;;;;;;5.38;4.40;;;22.40;93.30;;;;;;6358974;27;89063;-70
2023/06/05 14:47:43;;;;;;;4.68;4.10;;;22.40;93.50;;;;;;6360495;27;89022;-70
2023/06/05 14:50:46;;;;;;;4.10;3.70;;;22.50;93.50;;;;;;6360280;27;89518;-70
2023/06/05 14:53:48;;;;;;;5.57;4.30;;;22.40;93.40;;;;;;6360827;27;89097;-69
2023/06/05 14:56:51;;;;;;;4.50;4.10;;;22.40;93.50;;;;;;6357453;27;87563;-70
2023/06/05 14:59:53;;;;;;;5.05;4.47;;;22.50;93.50;;;;;;6346299;27;89033;-70
2023/06/05 15:02:55;;;;;;;4.78;4.38;;;22.40;93.40;;;;;;6358290;27;88009;-70
2023/06/05 15:05:57;;;;;;;4.70;4.20;;;22.50;93.10;;;;;;6357974;27;89966;-70
2023/06/05 15:08:59;;;;;;;5.10;4.32;;;22.40;93.00;;;;;;6357882;27;90455;-70
2023/06/05 15:12:03;;;;;;;5.00;4.50;;;22.40;93.20;;;;;;6355483;27;89087;-70
2023/06/05 15:15:07;;;;;;;4.43;4.07;;;22.40;93.30;;;;;;6341279;27;89113;-70
2023/06/05 15:18:09;;;;;;;4.53;4.13;;;22.40;93.40;;;;;;6357314;27;89052;-69
2023/06/05 15:21:11;;;;;;;5.30;4.60;;;22.50;93.60;;;;;;6356488;27;89471;-70
2023/06/05 15:24:13;;;;;;;5.88;4.60;;;22.40;93.60;;;;;;6358466;27;87970;-69
2023/06/05 15:27:17;;;;;;;5.20;4.70;;;22.40;93.70;;;;;;6357582;27;88263;-70
2023/06/05 15:30:19;;;;;;;6.75;4.90;;;22.40;93.60;;;;;;6353074;27;89003;-69
2023/06/05 15:33:21;;;;;;;6.03;4.75;;;22.50;93.70;;;;;;6356872;27;89104;-70
2023/06/05 15:36:23;;;;;;;5.38;4.85;;;22.50;93.80;;;;;;6347181;27;88887;-69
2023/06/05 15:39:25;;;;;;;4.95;4.55;;;22.40;93.80;;;;;;6357154;27;89001;-69
2023/06/05 15:42:34;;;;;;;4.43;4.03;;;22.40;94.00;;;;;;6349571;27;89467;-69
2023/06/05 15:45:36;;;;;;;4.90;4.43;;;22.40;94.10;;;;;;6345609;27;88028;-69
2023/06/05 15:48:39;;;;;;;5.18;4.68;;;22.50;94.30;;;;;;6355883;27;89148;-69
2023/06/05 15:51:42;;;;;;;5.32;4.82;;;22.40;94.40;;;;;;6343344;27;87960;-70
2023/06/05 15:54:43;;;;;;;5.05;4.60;;;22.40;94.50;;;;;;6350411;27;88993;-69
2023/06/05 15:57:48;;;;;;;7.78;5.13;;;22.40;94.10;;;;;;6348731;27;88250;-69